createdAt,value
2022-11-09T00:01:32.148Z,15.30
2022-11-09T00:04:02.929Z,15.30
2022-11-09T00:06:34.337Z,15.30
2022-11-09T00:09:08.448Z,15.20
2022-11-09T00:11:38.079Z,15.20
2022-11-09T00:14:07.108Z,15.20
2022-11-09T00:16:35.752Z,15.20
2022-11-09T00:19:04.673Z,15.10
2022-11-09T00:21:34.688Z,15.10
2022-11-09T00:24:03.233Z,15.00
2022-11-09T00:26:31.692Z,15.00
2022-11-09T00:29:01.642Z,15.00
2022-11-09T00:31:30.181Z,14.90
2022-11-09T00:33:59.309Z,14.80
2022-11-09T00:36:29.748Z,14.80
2022-11-09T00:39:01.498Z,14.80
2022-11-09T00:41:30.189Z,14.70
2022-11-09T00:43:59.033Z,14.60
2022-11-09T00:46:28.412Z,14.70
2022-11-09T00:48:57.515Z,14.70
2022-11-09T00:51:26.212Z,14.70
2022-11-09T00:53:57.886Z,14.60
2022-11-09T00:56:31.077Z,14.60
2022-11-09T00:59:21.428Z,14.60
2022-11-09T01:01:49.884Z,14.70
2022-11-09T01:04:20.176Z,14.70
2022-11-09T01:06:49.186Z,14.70
2022-11-09T01:09:17.714Z,14.70
2022-11-09T01:11:48.494Z,14.70
2022-11-09T01:14:17.081Z,14.70
2022-11-09T01:16:45.553Z,14.80
2022-11-09T01:19:14.268Z,14.80
2022-11-09T01:21:42.581Z,14.90
2022-11-09T01:24:11.897Z,14.80
2022-11-09T01:26:40.341Z,14.80
2022-11-09T01:29:10.610Z,14.90
2022-11-09T01:31:39.049Z,14.90
2022-11-09T01:34:07.483Z,14.80
2022-11-09T01:36:38.522Z,14.80
2022-11-09T01:39:06.872Z,14.80
2022-11-09T01:41:38.971Z,14.70
2022-11-09T01:44:11.703Z,14.70
2022-11-09T01:46:49.326Z,14.70
2022-11-09T01:49:25.982Z,14.70
2022-11-09T01:51:58.895Z,14.50
2022-11-09T01:54:30.739Z,14.50
2022-11-09T01:57:02.719Z,14.50
2022-11-09T01:59:37.151Z,14.40
2022-11-09T02:02:06.566Z,14.40
2022-11-09T02:04:40.426Z,14.40
2022-11-09T02:07:12.080Z,14.30
2022-11-09T02:09:47.613Z,14.20
2022-11-09T02:12:20.392Z,14.30
2022-11-09T02:14:54.061Z,14.20
2022-11-09T02:17:26.218Z,14.20
2022-11-09T02:19:55.119Z,14.20
2022-11-09T02:22:25.137Z,14.20
2022-11-09T02:24:56.498Z,14.20
2022-11-09T02:27:26.548Z,14.20
2022-11-09T02:29:57.679Z,14.30
2022-11-09T02:32:30.036Z,14.30
2022-11-09T02:35:01.606Z,14.30
2022-11-09T02:37:37.086Z,14.20
2022-11-09T02:40:13.066Z,14.30
2022-11-09T02:42:41.590Z,14.20
2022-11-09T02:45:11.312Z,14.20
2022-11-09T02:47:41.531Z,14.20
2022-11-09T02:50:10.944Z,14.20
2022-11-09T02:52:44.041Z,14.10
2022-11-09T02:55:13.400Z,14.00
2022-11-09T02:57:42.253Z,14.00
2022-11-09T03:00:14.527Z,14.00
2022-11-09T03:02:45.270Z,14.00
2022-11-09T03:05:14.760Z,14.10
2022-11-09T03:07:47.132Z,14.10
2022-11-09T03:10:16.746Z,14.20
2022-11-09T03:12:49.533Z,14.20
2022-11-09T03:15:18.101Z,14.20
2022-11-09T03:17:48.120Z,14.30
2022-11-09T03:20:17.675Z,14.40
2022-11-09T03:22:47.819Z,14.50
2022-11-09T03:25:16.813Z,14.50
2022-11-09T03:27:46.152Z,14.50
2022-11-09T03:30:15.042Z,14.50
2022-11-09T03:32:48.012Z,14.60
2022-11-09T03:35:18.913Z,14.60
2022-11-09T03:37:49.127Z,14.60
2022-11-09T03:40:18.490Z,14.70
2022-11-09T03:42:50.062Z,14.70
2022-11-09T03:45:18.738Z,14.70
2022-11-09T03:47:48.466Z,14.80
2022-11-09T03:50:18.944Z,14.80
2022-11-09T03:52:49.781Z,14.80
2022-11-09T03:55:18.309Z,14.80
2022-11-09T03:57:47.462Z,14.80
2022-11-09T04:00:21.571Z,14.80
2022-11-09T04:02:54.205Z,14.80
2022-11-09T04:05:22.962Z,14.80
2022-11-09T04:07:54.719Z,14.80
2022-11-09T04:10:24.634Z,14.80
2022-11-09T04:12:54.259Z,14.80
2022-11-09T04:15:22.896Z,14.80
2022-11-09T04:18:00.037Z,14.70
2022-11-09T04:20:29.557Z,14.70
2022-11-09T04:23:01.203Z,14.70
2022-11-09T04:25:32.912Z,14.70
2022-11-09T04:28:02.432Z,14.70
2022-11-09T04:30:34.999Z,14.70
2022-11-09T04:33:04.633Z,14.70
2022-11-09T04:35:36.846Z,14.70
2022-11-09T04:38:09.106Z,14.80
2022-11-09T04:40:37.965Z,14.80
2022-11-09T04:43:08.746Z,14.80
2022-11-09T04:45:37.480Z,14.80
2022-11-09T04:48:08.709Z,14.80
2022-11-09T04:50:37.377Z,14.80
2022-11-09T04:53:09.420Z,14.60
2022-11-09T04:55:38.577Z,14.40
2022-11-09T04:58:07.553Z,14.20
2022-11-09T05:00:36.532Z,14.00
2022-11-09T05:03:06.803Z,13.80
2022-11-09T05:05:35.965Z,13.70
2022-11-09T05:08:05.438Z,13.60
2022-11-09T05:10:36.325Z,13.60
2022-11-09T05:13:06.856Z,13.60
2022-11-09T05:15:36.943Z,13.60
2022-11-09T05:18:11.529Z,13.60
2022-11-09T05:20:39.947Z,13.60
2022-11-09T05:23:25.633Z,13.70
2022-11-09T05:25:55.683Z,13.70
2022-11-09T05:28:24.063Z,13.70
2022-11-09T05:30:52.370Z,13.70
2022-11-09T05:33:20.828Z,13.70
2022-11-09T05:35:50.534Z,13.70
2022-11-09T05:38:18.819Z,13.70
2022-11-09T05:40:49.928Z,13.50
2022-11-09T05:43:20.828Z,13.40
2022-11-09T05:45:49.748Z,13.20
2022-11-09T05:48:19.895Z,13.10
2022-11-09T05:50:49.287Z,13.10
2022-11-09T05:53:27.690Z,13.10
2022-11-09T05:55:56.338Z,13.10
2022-11-09T05:58:26.439Z,13.10
2022-11-09T06:00:55.274Z,13.10
2022-11-09T06:03:23.822Z,13.10
2022-11-09T06:05:52.384Z,13.10
2022-11-09T06:08:21.012Z,13.10
2022-11-09T06:10:49.616Z,13.10
2022-11-09T06:13:19.467Z,13.20
2022-11-09T06:15:58.285Z,13.20
2022-11-09T06:18:28.120Z,13.30
2022-11-09T06:20:58.523Z,13.30
2022-11-09T06:23:27.937Z,13.40
2022-11-09T06:25:59.462Z,13.50
2022-11-09T06:28:28.306Z,13.60
2022-11-09T06:31:01.089Z,13.60
2022-11-09T06:33:32.111Z,13.60
2022-11-09T06:36:00.906Z,13.70
2022-11-09T06:38:32.584Z,13.70
2022-11-09T06:41:04.113Z,13.80
2022-11-09T06:43:32.429Z,13.80
2022-11-09T06:46:06.980Z,13.80
2022-11-09T06:48:35.609Z,13.80
2022-11-09T06:51:05.089Z,13.90
2022-11-09T06:53:36.286Z,13.80
2022-11-09T06:56:06.034Z,13.90
2022-11-09T06:58:34.492Z,13.80
2022-11-09T07:01:10.325Z,13.80
2022-11-09T07:03:39.863Z,13.70
2022-11-09T07:06:10.630Z,13.60
2022-11-09T07:08:39.821Z,13.60
2022-11-09T07:11:10.202Z,13.50
2022-11-09T07:13:38.861Z,13.50
2022-11-09T07:16:12.506Z,13.50
2022-11-09T07:18:41.300Z,13.50
2022-11-09T07:21:14.236Z,13.40
2022-11-09T07:23:48.275Z,13.50
2022-11-09T07:26:17.198Z,13.50
2022-11-09T07:28:46.242Z,13.40
2022-11-09T07:31:16.150Z,13.40
2022-11-09T07:33:44.653Z,13.40
2022-11-09T07:36:16.942Z,13.40
2022-11-09T07:38:49.329Z,13.40
2022-11-09T07:41:17.797Z,13.40
2022-11-09T07:43:46.240Z,13.40
2022-11-09T07:46:16.783Z,13.40
2022-11-09T07:48:45.330Z,13.40
2022-11-09T07:51:14.342Z,13.40
2022-11-09T07:53:42.726Z,13.40
2022-11-09T07:56:11.273Z,13.40
2022-11-09T07:58:39.949Z,13.40
2022-11-09T08:01:14.282Z,13.50
2022-11-09T08:03:44.278Z,13.50
2022-11-09T08:06:18.058Z,13.50
2022-11-09T08:08:46.977Z,13.50
2022-11-09T08:11:15.490Z,13.50
2022-11-09T08:13:44.077Z,13.50
2022-11-09T08:16:13.511Z,13.50
2022-11-09T08:18:43.353Z,13.50
2022-11-09T08:21:11.759Z,13.50
2022-11-09T08:23:42.724Z,13.60
2022-11-09T08:26:12.619Z,13.70
2022-11-09T08:28:41.333Z,13.70
2022-11-09T08:31:10.324Z,13.70
2022-11-09T08:33:40.938Z,13.90
2022-11-09T08:36:16.721Z,13.90
2022-11-09T08:38:46.424Z,14.00
2022-11-09T08:41:15.017Z,14.00
2022-11-09T08:43:43.475Z,14.10
2022-11-09T08:46:11.925Z,14.10
2022-11-09T08:48:40.413Z,14.10
2022-11-09T08:51:08.772Z,14.20
2022-11-09T08:53:38.618Z,14.30
2022-11-09T08:56:08.555Z,14.30
2022-11-09T08:58:38.061Z,14.40
2022-11-09T09:01:15.379Z,14.40
2022-11-09T09:03:45.670Z,14.40
2022-11-09T09:06:14.336Z,14.50
2022-11-09T09:08:44.372Z,14.60
2022-11-09T09:11:12.728Z,14.60
2022-11-09T09:13:43.768Z,14.70
2022-11-09T09:16:13.786Z,14.80
2022-11-09T09:18:43.834Z,14.90
2022-11-09T09:21:13.656Z,14.90
2022-11-09T09:23:43.656Z,15.00
2022-11-09T09:26:12.115Z,15.00
2022-11-09T09:28:40.763Z,15.10
2022-11-09T09:31:13.027Z,15.10
2022-11-09T09:33:44.082Z,15.20
2022-11-09T09:36:18.424Z,15.30
2022-11-09T09:38:48.743Z,15.40
2022-11-09T09:41:24.123Z,15.50
2022-11-09T09:43:58.429Z,15.50
2022-11-09T09:46:31.321Z,15.50
2022-11-09T09:49:03.701Z,15.50
2022-11-09T09:51:39.952Z,15.60
2022-11-09T09:54:16.704Z,15.60
2022-11-09T09:56:47.237Z,15.50
2022-11-09T09:59:21.868Z,15.40
2022-11-09T10:01:52.851Z,15.40
2022-11-09T10:04:25.591Z,15.50
2022-11-09T10:07:04.698Z,15.40
2022-11-09T10:09:55.888Z,15.50
2022-11-09T10:12:34.597Z,15.50
2022-11-09T10:15:22.468Z,15.60
2022-11-09T10:18:05.579Z,15.70
2022-11-09T10:20:51.730Z,15.80
2022-11-09T10:23:49.972Z,16.00
2022-11-09T10:26:25.273Z,16.00
2022-11-09T10:29:16.895Z,16.10
2022-11-09T10:31:48.278Z,16.00
2022-11-09T10:34:20.641Z,15.90
2022-11-09T10:36:55.479Z,15.90
2022-11-09T10:39:26.896Z,15.90
2022-11-09T10:42:16.513Z,15.90
2022-11-09T10:45:14.273Z,16.10
2022-11-09T10:48:03.057Z,16.10
2022-11-09T10:50:52.821Z,16.20
2022-11-09T10:53:40.002Z,16.50
2022-11-09T10:56:33.052Z,16.60
2022-11-09T10:59:42.274Z,16.80
2022-11-09T11:02:44.929Z,16.80
2022-11-09T11:05:36.407Z,16.60
2022-11-09T11:08:36.369Z,16.40
2022-11-09T11:11:33.733Z,16.60
2022-11-09T11:14:29.351Z,17.10
2022-11-09T11:17:30.421Z,17.50
2022-11-09T11:20:36.183Z,17.50
2022-11-09T11:23:25.393Z,17.60
2022-11-09T11:26:39.004Z,17.50
2022-11-09T11:29:42.760Z,18.00
2022-11-09T11:32:31.391Z,18.20
2022-11-09T11:35:23.214Z,18.30
2022-11-09T11:38:21.926Z,18.00
2022-11-09T11:41:29.149Z,17.90
2022-11-09T11:44:27.817Z,18.00
2022-11-09T11:47:22.531Z,18.60
2022-11-09T11:50:41.008Z,18.70
2022-11-09T11:53:47.808Z,18.60
2022-11-09T11:56:39.103Z,18.40
2022-11-09T11:59:40.556Z,18.10
2022-11-09T12:03:16.064Z,18.60
2022-11-09T12:06:18.397Z,19.20
2022-11-09T12:09:14.805Z,18.30
2022-11-09T12:12:14.230Z,17.80
2022-11-09T12:15:19.869Z,17.30
2022-11-09T12:18:18.651Z,17.10
2022-11-09T12:21:17.660Z,17.10
2022-11-09T12:24:21.862Z,17.30
2022-11-09T12:27:46.043Z,17.10
2022-11-09T12:30:58.411Z,17.00
2022-11-09T12:33:51.222Z,16.90
2022-11-09T12:36:45.847Z,16.80
2022-11-09T12:39:38.342Z,16.60
2022-11-09T12:42:30.699Z,16.50
2022-11-09T12:45:27.659Z,16.60
2022-11-09T12:48:22.582Z,16.60
2022-11-09T12:51:13.416Z,16.50
2022-11-09T12:54:10.512Z,16.90
2022-11-09T12:57:04.701Z,18.00
2022-11-09T12:59:54.037Z,17.90
2022-11-09T13:02:52.295Z,17.80
2022-11-09T13:05:40.663Z,17.20
2022-11-09T13:08:30.520Z,17.90
2022-11-09T13:11:28.586Z,17.80
2022-11-09T13:14:39.973Z,17.50
2022-11-09T13:18:04.428Z,17.30
2022-11-09T13:20:56.597Z,17.60
2022-11-09T13:24:03.331Z,18.00
2022-11-09T13:27:03.001Z,17.80
2022-11-09T13:29:56.086Z,17.30
2022-11-09T13:33:23.389Z,16.80
2022-11-09T13:36:39.338Z,16.50
2022-11-09T13:39:56.867Z,17.40
2022-11-09T13:43:01.119Z,18.40
2022-11-09T13:46:07.316Z,18.80
2022-11-09T13:50:05.469Z,18.30
2022-11-09T13:56:37.961Z,17.10
2022-11-09T13:59:34.394Z,16.40
2022-11-09T14:02:24.718Z,16.00
2022-11-09T14:05:26.411Z,16.00
2022-11-09T14:08:26.325Z,16.00
2022-11-09T14:11:50.688Z,15.90
2022-11-09T14:15:17.687Z,15.80
2022-11-09T14:18:38.663Z,15.90
2022-11-09T14:21:39.528Z,15.80
2022-11-09T14:24:31.289Z,15.80
2022-11-09T14:27:34.874Z,15.80
2022-11-09T14:30:25.986Z,15.60
2022-11-09T14:33:25.938Z,15.50
2022-11-09T14:36:14.349Z,15.20
2022-11-09T14:39:04.046Z,15.10
2022-11-09T14:41:52.360Z,15.10
2022-11-09T14:44:44.141Z,15.20
2022-11-09T14:47:35.836Z,15.30
2022-11-09T14:50:25.934Z,15.40
2022-11-09T14:53:19.271Z,15.30
2022-11-09T14:56:15.419Z,15.20
2022-11-09T14:59:05.848Z,15.10
2022-11-09T15:02:10.528Z,15.10
2022-11-09T15:05:01.440Z,15.00
2022-11-09T15:07:50.427Z,14.90
2022-11-09T15:10:39.995Z,14.80
2022-11-09T15:13:52.708Z,14.70
2022-11-09T15:16:44.524Z,14.70
2022-11-09T15:19:41.441Z,14.60
2022-11-09T15:22:51.295Z,14.40
2022-11-09T15:26:03.724Z,14.10
2022-11-09T15:29:01.327Z,14.10
2022-11-09T15:32:00.584Z,13.90
2022-11-09T15:35:17.314Z,13.80
2022-11-09T15:38:10.132Z,13.70
2022-11-09T15:41:00.631Z,13.70
2022-11-09T15:43:48.746Z,13.70
2022-11-09T15:46:41.774Z,13.60
2022-11-09T15:49:32.397Z,13.50
2022-11-09T15:52:20.382Z,13.40
2022-11-09T15:55:25.777Z,13.30
2022-11-09T15:58:18.180Z,13.20
2022-11-09T16:01:06.397Z,13.10
2022-11-09T16:03:53.521Z,13.00
2022-11-09T16:06:46.130Z,13.00
2022-11-09T16:09:33.745Z,12.90
2022-11-09T16:12:22.880Z,12.80
2022-11-09T16:15:11.983Z,12.80
2022-11-09T16:47:52.151Z,12.70
2022-11-09T16:50:40.391Z,12.70
2022-11-09T16:53:28.115Z,12.60
2022-11-09T16:56:15.575Z,12.60
2022-11-09T16:59:04.077Z,12.60
2022-11-09T17:01:55.689Z,12.60
2022-11-09T17:04:42.831Z,12.60
2022-11-09T17:07:42.631Z,12.50
2022-11-09T17:10:32.091Z,12.50
2022-11-09T17:13:19.075Z,12.50
2022-11-09T17:16:08.797Z,12.60
2022-11-09T17:18:56.357Z,12.60
2022-11-09T17:21:43.864Z,12.60
2022-11-09T17:24:33.239Z,12.50
2022-11-09T17:27:20.481Z,12.50
2022-11-09T17:30:09.175Z,12.60
2022-11-09T17:32:58.434Z,12.60
2022-11-09T17:35:45.940Z,12.60
2022-11-09T17:38:33.031Z,12.70
2022-11-09T17:41:25.109Z,12.70
2022-11-09T17:44:12.498Z,12.60
2022-11-09T17:46:59.831Z,12.60
2022-11-09T17:49:47.060Z,12.60
2022-11-09T17:52:33.901Z,12.60
2022-11-09T17:55:21.285Z,12.60
2022-11-09T17:58:12.591Z,12.60
2022-11-09T18:01:06.851Z,12.50
2022-11-09T18:03:54.451Z,12.60
2022-11-09T18:06:41.518Z,12.60
2022-11-09T18:09:40.835Z,12.60
2022-11-09T18:12:29.136Z,12.60
2022-11-09T18:15:18.059Z,12.50
2022-11-09T18:18:05.179Z,12.50
2022-11-09T18:20:53.188Z,12.40
2022-11-09T18:23:40.116Z,12.40
2022-11-09T18:26:27.547Z,12.40
2022-11-09T18:29:14.587Z,12.40
2022-11-09T18:32:02.941Z,12.30
2022-11-09T18:34:49.936Z,12.30
2022-11-09T18:37:37.265Z,12.30
2022-11-09T18:40:24.810Z,12.30
2022-11-09T18:43:11.785Z,12.40
2022-11-09T18:46:03.480Z,12.40
2022-11-09T18:48:54.277Z,12.40
2022-11-09T18:51:41.613Z,12.40
2022-11-09T18:54:29.196Z,12.40
2022-11-09T18:57:20.127Z,12.50
2022-11-09T19:00:08.457Z,12.40
2022-11-09T19:02:58.211Z,12.30
2022-11-09T19:05:49.290Z,12.20
2022-11-09T19:08:54.376Z,12.10
2022-11-09T19:11:41.709Z,12.10
2022-11-09T19:14:29.711Z,12.10
2022-11-09T19:17:17.675Z,12.00
2022-11-09T19:20:05.844Z,12.00
2022-11-09T19:22:54.857Z,12.00
2022-11-09T19:25:41.992Z,11.90
2022-11-09T19:28:29.193Z,11.80
2022-11-09T19:31:17.654Z,11.90
2022-11-09T19:34:05.055Z,11.80
2022-11-09T19:36:52.086Z,11.80
2022-11-09T19:39:45.267Z,11.70
2022-11-09T19:42:32.320Z,11.70
2022-11-09T19:45:19.258Z,11.70
2022-11-09T19:48:06.335Z,11.60
2022-11-09T19:50:54.112Z,11.60
2022-11-09T19:53:42.653Z,11.60
2022-11-09T19:56:37.107Z,11.50
2022-11-09T19:59:24.476Z,11.50
2022-11-09T20:02:12.083Z,11.40
2022-11-09T20:04:59.133Z,11.30
2022-11-09T20:07:46.784Z,11.30
2022-11-09T20:10:37.585Z,11.30
2022-11-09T20:13:26.278Z,11.30
2022-11-09T20:16:13.529Z,11.10
2022-11-09T20:19:00.784Z,11.10
2022-11-09T20:21:49.286Z,11.00
2022-11-09T20:24:36.565Z,11.00
2022-11-09T20:27:26.921Z,11.00
2022-11-09T20:30:18.253Z,11.10
2022-11-09T20:33:05.390Z,11.00
2022-11-09T20:35:54.372Z,10.90
2022-11-09T20:38:42.024Z,10.90
2022-11-09T20:41:29.094Z,10.90
2022-11-09T20:44:17.073Z,10.90
2022-11-09T20:47:06.396Z,10.90
2022-11-09T20:49:53.557Z,11.00
2022-11-09T20:52:40.861Z,11.00
2022-11-09T20:55:27.999Z,11.00
2022-11-09T20:58:16.355Z,11.00
2022-11-09T21:01:06.916Z,11.00
2022-11-09T21:03:55.921Z,11.00
2022-11-09T21:06:43.430Z,10.90
2022-11-09T21:09:30.398Z,10.80
2022-11-09T21:12:25.091Z,10.80
2022-11-09T21:15:14.338Z,10.80
2022-11-09T21:18:01.754Z,10.90
2022-11-09T21:20:50.661Z,10.80
2022-11-09T21:23:56.345Z,10.80
2022-11-09T21:27:00.554Z,10.90
2022-11-09T21:29:53.907Z,11.00
2022-11-09T21:32:42.108Z,10.90
2022-11-09T21:35:29.042Z,10.90
2022-11-09T21:38:17.817Z,10.80
2022-11-09T21:41:20.933Z,10.80
2022-11-09T21:44:09.303Z,10.70
2022-11-09T21:46:56.829Z,10.70
2022-11-09T21:49:44.085Z,10.80
2022-11-09T21:52:31.193Z,10.80
2022-11-09T21:55:19.959Z,10.70
2022-11-09T21:58:07.878Z,10.70
2022-11-09T22:00:55.107Z,10.70
2022-11-09T22:03:42.700Z,10.70
2022-11-09T22:06:30.379Z,10.70
2022-11-09T22:09:19.221Z,10.70
2022-11-09T22:12:25.036Z,10.70
2022-11-09T22:15:29.661Z,10.70
2022-11-09T22:18:37.770Z,10.70
2022-11-09T22:21:24.344Z,10.80
2022-11-09T22:24:11.752Z,10.70
2022-11-09T22:26:58.896Z,10.70
2022-11-09T22:29:47.081Z,10.70
2022-11-09T22:32:34.262Z,10.70
2022-11-09T22:35:21.389Z,10.80
2022-11-09T22:38:08.620Z,10.80
2022-11-09T22:41:00.326Z,10.70
2022-11-09T22:43:47.404Z,10.70
2022-11-09T22:46:35.942Z,10.70
2022-11-09T22:49:23.125Z,10.60
2022-11-09T22:52:10.473Z,10.60
2022-11-09T22:54:57.451Z,10.60
2022-11-09T22:57:44.626Z,10.40
2022-11-09T23:00:31.661Z,10.40
2022-11-09T23:03:21.585Z,10.40
2022-11-09T23:06:12.178Z,10.40
2022-11-09T23:08:58.856Z,10.40
2022-11-09T23:11:46.300Z,10.40
2022-11-09T23:14:50.487Z,10.40
2022-11-09T23:17:55.776Z,10.30
2022-11-09T23:20:44.614Z,10.20
2022-11-09T23:23:31.722Z,10.20
2022-11-09T23:26:19.280Z,10.10
2022-11-09T23:29:06.412Z,10.10
2022-11-09T23:31:53.451Z,10.00
2022-11-09T23:34:40.632Z,10.00
2022-11-09T23:37:29.993Z,10.00
2022-11-09T23:40:17.354Z,9.90
2022-11-09T23:43:06.849Z,9.90
2022-11-09T23:45:53.972Z,9.80
2022-11-09T23:48:42.188Z,9.70
2022-11-09T23:51:29.142Z,9.60
2022-11-09T23:54:17.622Z,9.80
2022-11-09T23:57:05.107Z,9.80
2022-11-09T23:59:52.382Z,9.90
